sensor_id;sensor_type;location;lat;lon;timestamp;temperature;humidity
16627;DHT22;8427;52.204;7.202;2023-07-31T00:02:11;15.50;90.80
16627;DHT22;8427;52.204;7.202;2023-07-31T00:04:38;15.50;90.80
16627;DHT22;8427;52.204;7.202;2023-07-31T00:07:06;15.50;90.80
16627;DHT22;8427;52.204;7.202;2023-07-31T00:09:35;15.40;90.60
16627;DHT22;8427;52.204;7.202;2023-07-31T00:12:03;15.40;90.70
16627;DHT22;8427;52.204;7.202;2023-07-31T00:14:31;15.40;90.60
16627;DHT22;8427;52.204;7.202;2023-07-31T00:17:01;15.40;90.70
16627;DHT22;8427;52.204;7.202;2023-07-31T00:19:29;15.40;90.80
16627;DHT22;8427;52.204;7.202;2023-07-31T00:21:57;15.40;90.70
16627;DHT22;8427;52.204;7.202;2023-07-31T00:24:25;15.30;90.80
16627;DHT22;8427;52.204;7.202;2023-07-31T00:26:53;15.30;91.00
16627;DHT22;8427;52.204;7.202;2023-07-31T00:29:21;15.20;91.00
16627;DHT22;8427;52.204;7.202;2023-07-31T00:31:49;15.30;90.90
16627;DHT22;8427;52.204;7.202;2023-07-31T00:34:18;15.20;91.00
16627;DHT22;8427;52.204;7.202;2023-07-31T00:36:46;15.40;91.00
16627;DHT22;8427;52.204;7.202;2023-07-31T00:39:14;15.20;91.00
16627;DHT22;8427;52.204;7.202;2023-07-31T00:41:42;15.30;90.90
16627;DHT22;8427;52.204;7.202;2023-07-31T00:44:09;15.20;90.70
16627;DHT22;8427;52.204;7.202;2023-07-31T00:46:37;15.20;90.40
16627;DHT22;8427;52.204;7.202;2023-07-31T00:49:06;15.20;90.80
16627;DHT22;8427;52.204;7.202;2023-07-31T00:51:36;15.20;90.90
16627;DHT22;8427;52.204;7.202;2023-07-31T00:54:06;15.30;90.80
16627;DHT22;8427;52.204;7.202;2023-07-31T00:56:33;15.10;90.90
16627;DHT22;8427;52.204;7.202;2023-07-31T00:59:01;15.20;91.00
16627;DHT22;8427;52.204;7.202;2023-07-31T01:01:29;15.10;91.00
16627;DHT22;8427;52.204;7.202;2023-07-31T01:03:58;15.10;91.10
16627;DHT22;8427;52.204;7.202;2023-07-31T01:06:30;15.10;91.30
16627;DHT22;8427;52.204;7.202;2023-07-31T01:09:06;15.10;91.20
16627;DHT22;8427;52.204;7.202;2023-07-31T01:11:37;15.10;91.30
16627;DHT22;8427;52.204;7.202;2023-07-31T01:14:06;15.10;91.20
16627;DHT22;8427;52.204;7.202;2023-07-31T01:16:34;15.00;91.30
16627;DHT22;8427;52.204;7.202;2023-07-31T01:19:02;15.10;91.40
16627;DHT22;8427;52.204;7.202;2023-07-31T01:21:47;15.00;91.60
16627;DHT22;8427;52.204;7.202;2023-07-31T01:24:29;15.10;91.40
16627;DHT22;8427;52.204;7.202;2023-07-31T01:27:10;15.00;91.30
16627;DHT22;8427;52.204;7.202;2023-07-31T01:29:47;15.00;91.60
16627;DHT22;8427;52.204;7.202;2023-07-31T01:32:18;15.10;91.60
16627;DHT22;8427;52.204;7.202;2023-07-31T01:34:47;15.00;91.80
16627;DHT22;8427;52.204;7.202;2023-07-31T01:37:16;15.10;91.80
16627;DHT22;8427;52.204;7.202;2023-07-31T01:39:44;15.10;91.90
16627;DHT22;8427;52.204;7.202;2023-07-31T01:42:13;15.10;92.00
16627;DHT22;8427;52.204;7.202;2023-07-31T01:44:41;15.20;91.90
16627;DHT22;8427;52.204;7.202;2023-07-31T01:47:09;15.20;92.10
16627;DHT22;8427;52.204;7.202;2023-07-31T01:49:37;15.20;92.10
16627;DHT22;8427;52.204;7.202;2023-07-31T01:52:06;15.30;92.10
16627;DHT22;8427;52.204;7.202;2023-07-31T01:54:34;15.20;92.30
16627;DHT22;8427;52.204;7.202;2023-07-31T01:57:03;15.20;92.30
16627;DHT22;8427;52.204;7.202;2023-07-31T01:59:33;15.20;92.30
16627;DHT22;8427;52.204;7.202;2023-07-31T02:02:01;15.30;92.30
16627;DHT22;8427;52.204;7.202;2023-07-31T02:04:29;15.30;92.40
16627;DHT22;8427;52.204;7.202;2023-07-31T02:06:57;15.20;92.30
16627;DHT22;8427;52.204;7.202;2023-07-31T02:09:25;15.20;92.30
16627;DHT22;8427;52.204;7.202;2023-07-31T02:11:53;15.20;92.40
16627;DHT22;8427;52.204;7.202;2023-07-31T02:14:21;15.20;92.50
16627;DHT22;8427;52.204;7.202;2023-07-31T02:16:50;15.30;92.40
16627;DHT22;8427;52.204;7.202;2023-07-31T02:19:18;15.30;92.40
16627;DHT22;8427;52.204;7.202;2023-07-31T02:21:46;15.30;92.40
16627;DHT22;8427;52.204;7.202;2023-07-31T02:24:14;15.30;92.40
16627;DHT22;8427;52.204;7.202;2023-07-31T02:26:42;15.30;92.40
16627;DHT22;8427;52.204;7.202;2023-07-31T02:29:10;15.40;92.40
16627;DHT22;8427;52.204;7.202;2023-07-31T02:31:38;15.40;92.40
16627;DHT22;8427;52.204;7.202;2023-07-31T02:34:07;15.40;92.40
16627;DHT22;8427;52.204;7.202;2023-07-31T02:36:35;15.40;92.70
16627;DHT22;8427;52.204;7.202;2023-07-31T02:39:04;15.50;92.60
16627;DHT22;8427;52.204;7.202;2023-07-31T02:41:32;15.50;92.70
16627;DHT22;8427;52.204;7.202;2023-07-31T02:44:00;15.50;92.70
16627;DHT22;8427;52.204;7.202;2023-07-31T02:46:27;15.50;92.80
16627;DHT22;8427;52.204;7.202;2023-07-31T02:48:55;15.60;92.90
16627;DHT22;8427;52.204;7.202;2023-07-31T02:51:25;15.70;92.90
16627;DHT22;8427;52.204;7.202;2023-07-31T02:53:53;15.60;92.90
16627;DHT22;8427;52.204;7.202;2023-07-31T02:56:20;15.80;93.00
16627;DHT22;8427;52.204;7.202;2023-07-31T02:58:48;15.80;92.90
16627;DHT22;8427;52.204;7.202;2023-07-31T03:01:16;15.80;92.90
16627;DHT22;8427;52.204;7.202;2023-07-31T03:03:44;15.80;93.00
16627;DHT22;8427;52.204;7.202;2023-07-31T03:06:12;15.90;92.90
16627;DHT22;8427;52.204;7.202;2023-07-31T03:08:41;15.90;93.00
16627;DHT22;8427;52.204;7.202;2023-07-31T03:11:09;15.90;92.90
16627;DHT22;8427;52.204;7.202;2023-07-31T03:13:38;16.00;92.80
16627;DHT22;8427;52.204;7.202;2023-07-31T03:16:06;16.00;92.90
16627;DHT22;8427;52.204;7.202;2023-07-31T03:18:34;16.10;92.60
16627;DHT22;8427;52.204;7.202;2023-07-31T03:21:01;16.00;92.80
16627;DHT22;8427;52.204;7.202;2023-07-31T03:23:29;16.10;92.80
16627;DHT22;8427;52.204;7.202;2023-07-31T03:26:00;16.00;92.70
16627;DHT22;8427;52.204;7.202;2023-07-31T03:28:28;16.00;92.60
16627;DHT22;8427;52.204;7.202;2023-07-31T03:30:56;16.10;92.80
16627;DHT22;8427;52.204;7.202;2023-07-31T03:33:24;16.10;92.60
16627;DHT22;8427;52.204;7.202;2023-07-31T03:35:52;16.10;92.70
16627;DHT22;8427;52.204;7.202;2023-07-31T03:38:20;16.10;92.70
16627;DHT22;8427;52.204;7.202;2023-07-31T03:40:48;16.10;92.70
16627;DHT22;8427;52.204;7.202;2023-07-31T03:43:17;16.10;92.70
16627;DHT22;8427;52.204;7.202;2023-07-31T03:45:46;16.00;92.50
16627;DHT22;8427;52.204;7.202;2023-07-31T03:48:14;16.00;92.70
16627;DHT22;8427;52.204;7.202;2023-07-31T03:50:43;16.00;92.70
16627;DHT22;8427;52.204;7.202;2023-07-31T03:53:10;16.10;92.60
16627;DHT22;8427;52.204;7.202;2023-07-31T03:55:39;16.00;92.70
16627;DHT22;8427;52.204;7.202;2023-07-31T03:58:07;16.00;92.70
16627;DHT22;8427;52.204;7.202;2023-07-31T04:00:36;16.00;92.60
16627;DHT22;8427;52.204;7.202;2023-07-31T04:03:04;16.10;92.70
16627;DHT22;8427;52.204;7.202;2023-07-31T04:05:32;16.00;92.60
16627;DHT22;8427;52.204;7.202;2023-07-31T04:08:00;16.00;92.50
16627;DHT22;8427;52.204;7.202;2023-07-31T04:10:28;16.00;92.50
16627;DHT22;8427;52.204;7.202;2023-07-31T04:12:58;16.00;92.50
16627;DHT22;8427;52.204;7.202;2023-07-31T04:15:26;16.10;92.30
16627;DHT22;8427;52.204;7.202;2023-07-31T04:17:55;16.00;92.40
16627;DHT22;8427;52.204;7.202;2023-07-31T04:20:23;16.00;92.40
16627;DHT22;8427;52.204;7.202;2023-07-31T04:22:51;16.10;92.40
16627;DHT22;8427;52.204;7.202;2023-07-31T04:25:19;16.00;92.40
16627;DHT22;8427;52.204;7.202;2023-07-31T04:27:47;16.00;92.40
16627;DHT22;8427;52.204;7.202;2023-07-31T04:30:15;15.90;92.40
16627;DHT22;8427;52.204;7.202;2023-07-31T04:32:43;16.00;92.30
16627;DHT22;8427;52.204;7.202;2023-07-31T04:35:12;16.00;92.30
16627;DHT22;8427;52.204;7.202;2023-07-31T04:37:40;16.00;92.00
16627;DHT22;8427;52.204;7.202;2023-07-31T04:40:08;16.00;91.90
16627;DHT22;8427;52.204;7.202;2023-07-31T04:42:36;16.00;91.70
16627;DHT22;8427;52.204;7.202;2023-07-31T04:45:05;16.00;91.90
16627;DHT22;8427;52.204;7.202;2023-07-31T04:47:41;16.00;91.80
16627;DHT22;8427;52.204;7.202;2023-07-31T04:50:09;16.10;91.50
16627;DHT22;8427;52.204;7.202;2023-07-31T04:52:39;16.00;91.40
16627;DHT22;8427;52.204;7.202;2023-07-31T04:55:07;16.00;91.20
16627;DHT22;8427;52.204;7.202;2023-07-31T04:57:35;15.90;91.30
16627;DHT22;8427;52.204;7.202;2023-07-31T05:00:04;16.00;91.20
16627;DHT22;8427;52.204;7.202;2023-07-31T05:02:32;16.00;91.20
16627;DHT22;8427;52.204;7.202;2023-07-31T05:05:00;16.00;90.90
16627;DHT22;8427;52.204;7.202;2023-07-31T05:07:28;16.00;90.90
16627;DHT22;8427;52.204;7.202;2023-07-31T05:09:58;16.00;90.70
16627;DHT22;8427;52.204;7.202;2023-07-31T05:12:26;15.90;90.80
16627;DHT22;8427;52.204;7.202;2023-07-31T05:14:54;16.00;90.60
16627;DHT22;8427;52.204;7.202;2023-07-31T05:17:22;16.00;90.30
16627;DHT22;8427;52.204;7.202;2023-07-31T05:19:50;16.10;90.40
16627;DHT22;8427;52.204;7.202;2023-07-31T05:22:18;16.10;90.30
16627;DHT22;8427;52.204;7.202;2023-07-31T05:24:46;16.10;90.10
16627;DHT22;8427;52.204;7.202;2023-07-31T05:27:15;16.10;89.70
16627;DHT22;8427;52.204;7.202;2023-07-31T05:29:45;16.00;90.00
16627;DHT22;8427;52.204;7.202;2023-07-31T05:32:13;15.90;89.70
16627;DHT22;8427;52.204;7.202;2023-07-31T05:34:41;16.10;89.80
16627;DHT22;8427;52.204;7.202;2023-07-31T05:37:10;15.90;90.00
16627;DHT22;8427;52.204;7.202;2023-07-31T05:39:38;15.90;90.20
16627;DHT22;8427;52.204;7.202;2023-07-31T05:42:06;15.90;90.40
16627;DHT22;8427;52.204;7.202;2023-07-31T05:44:36;15.80;90.50
16627;DHT22;8427;52.204;7.202;2023-07-31T05:47:04;15.90;90.50
16627;DHT22;8427;52.204;7.202;2023-07-31T05:49:32;15.80;90.80
16627;DHT22;8427;52.204;7.202;2023-07-31T05:52:00;15.80;90.90
16627;DHT22;8427;52.204;7.202;2023-07-31T05:54:28;15.90;91.00
16627;DHT22;8427;52.204;7.202;2023-07-31T05:56:56;15.80;90.80
16627;DHT22;8427;52.204;7.202;2023-07-31T05:59:24;15.90;90.80
16627;DHT22;8427;52.204;7.202;2023-07-31T06:01:53;15.90;91.00
16627;DHT22;8427;52.204;7.202;2023-07-31T06:04:21;15.90;90.70
16627;DHT22;8427;52.204;7.202;2023-07-31T06:06:52;16.00;90.80
16627;DHT22;8427;52.204;7.202;2023-07-31T06:09:20;16.00;90.70
16627;DHT22;8427;52.204;7.202;2023-07-31T06:11:48;16.00;90.60
16627;DHT22;8427;52.204;7.202;2023-07-31T06:14:16;16.00;90.70
16627;DHT22;8427;52.204;7.202;2023-07-31T06:16:44;16.10;90.70
16627;DHT22;8427;52.204;7.202;2023-07-31T06:19:13;16.00;90.70
16627;DHT22;8427;52.204;7.202;2023-07-31T06:21:41;16.10;90.70
16627;DHT22;8427;52.204;7.202;2023-07-31T06:24:10;16.20;90.50
16627;DHT22;8427;52.204;7.202;2023-07-31T06:26:39;16.20;90.40
16627;DHT22;8427;52.204;7.202;2023-07-31T06:29:08;16.20;90.10
16627;DHT22;8427;52.204;7.202;2023-07-31T06:31:37;16.30;90.10
16627;DHT22;8427;52.204;7.202;2023-07-31T06:34:05;16.40;90.30
16627;DHT22;8427;52.204;7.202;2023-07-31T06:36:34;16.40;89.80
16627;DHT22;8427;52.204;7.202;2023-07-31T06:39:03;16.40;89.50
16627;DHT22;8427;52.204;7.202;2023-07-31T06:41:31;16.40;89.40
16627;DHT22;8427;52.204;7.202;2023-07-31T06:43:59;16.40;89.50
16627;DHT22;8427;52.204;7.202;2023-07-31T06:46:27;16.40;89.60
16627;DHT22;8427;52.204;7.202;2023-07-31T06:48:55;16.40;89.90
16627;DHT22;8427;52.204;7.202;2023-07-31T06:51:23;16.30;90.20
16627;DHT22;8427;52.204;7.202;2023-07-31T06:53:52;16.30;90.40
16627;DHT22;8427;52.204;7.202;2023-07-31T06:56:21;16.20;90.70
16627;DHT22;8427;52.204;7.202;2023-07-31T06:58:49;16.30;90.50
16627;DHT22;8427;52.204;7.202;2023-07-31T07:01:16;16.20;90.80
16627;DHT22;8427;52.204;7.202;2023-07-31T07:03:44;16.20;90.90
16627;DHT22;8427;52.204;7.202;2023-07-31T07:06:12;16.20;91.30
16627;DHT22;8427;52.204;7.202;2023-07-31T07:08:40;16.20;91.60
16627;DHT22;8427;52.204;7.202;2023-07-31T07:11:10;16.10;91.50
16627;DHT22;8427;52.204;7.202;2023-07-31T07:13:37;16.10;91.70
16627;DHT22;8427;52.204;7.202;2023-07-31T07:16:06;16.10;91.80
16627;DHT22;8427;52.204;7.202;2023-07-31T07:18:34;16.20;91.90
16627;DHT22;8427;52.204;7.202;2023-07-31T07:21:05;16.30;91.90
16627;DHT22;8427;52.204;7.202;2023-07-31T07:23:33;16.20;92.10
16627;DHT22;8427;52.204;7.202;2023-07-31T07:26:01;16.30;91.90
16627;DHT22;8427;52.204;7.202;2023-07-31T07:28:30;16.30;92.00
16627;DHT22;8427;52.204;7.202;2023-07-31T07:30:58;16.40;92.10
16627;DHT22;8427;52.204;7.202;2023-07-31T07:33:26;16.50;91.90
16627;DHT22;8427;52.204;7.202;2023-07-31T07:35:54;16.50;91.80
16627;DHT22;8427;52.204;7.202;2023-07-31T07:38:22;16.60;92.00
16627;DHT22;8427;52.204;7.202;2023-07-31T07:40:51;16.60;91.90
16627;DHT22;8427;52.204;7.202;2023-07-31T07:43:20;16.50;91.80
16627;DHT22;8427;52.204;7.202;2023-07-31T07:45:49;16.60;92.10
16627;DHT22;8427;52.204;7.202;2023-07-31T07:48:17;16.50;92.00
16627;DHT22;8427;52.204;7.202;2023-07-31T07:50:45;16.60;92.00
16627;DHT22;8427;52.204;7.202;2023-07-31T07:53:13;16.60;92.10
16627;DHT22;8427;52.204;7.202;2023-07-31T07:55:41;16.70;92.30
16627;DHT22;8427;52.204;7.202;2023-07-31T07:58:09;16.80;92.30
16627;DHT22;8427;52.204;7.202;2023-07-31T08:00:37;16.90;92.20
16627;DHT22;8427;52.204;7.202;2023-07-31T08:03:06;16.90;92.10
16627;DHT22;8427;52.204;7.202;2023-07-31T08:05:35;16.80;92.10
16627;DHT22;8427;52.204;7.202;2023-07-31T08:08:03;16.90;92.00
16627;DHT22;8427;52.204;7.202;2023-07-31T08:10:31;16.90;92.00
16627;DHT22;8427;52.204;7.202;2023-07-31T08:12:58;16.90;92.10
16627;DHT22;8427;52.204;7.202;2023-07-31T08:15:26;17.00;92.20
16627;DHT22;8427;52.204;7.202;2023-07-31T08:17:54;17.10;91.90
16627;DHT22;8427;52.204;7.202;2023-07-31T08:20:23;17.10;91.90
16627;DHT22;8427;52.204;7.202;2023-07-31T08:22:51;17.10;92.10
16627;DHT22;8427;52.204;7.202;2023-07-31T08:25:19;17.10;91.80
16627;DHT22;8427;52.204;7.202;2023-07-31T08:27:47;17.30;91.80
16627;DHT22;8427;52.204;7.202;2023-07-31T08:30:15;17.20;91.80
16627;DHT22;8427;52.204;7.202;2023-07-31T08:32:46;17.30;91.80
16627;DHT22;8427;52.204;7.202;2023-07-31T08:35:14;17.30;91.70
16627;DHT22;8427;52.204;7.202;2023-07-31T08:37:44;17.40;91.70
16627;DHT22;8427;52.204;7.202;2023-07-31T08:40:12;17.50;91.70
16627;DHT22;8427;52.204;7.202;2023-07-31T08:42:44;17.50;91.40
16627;DHT22;8427;52.204;7.202;2023-07-31T08:45:15;17.50;91.60
16627;DHT22;8427;52.204;7.202;2023-07-31T08:47:45;17.60;91.40
16627;DHT22;8427;52.204;7.202;2023-07-31T08:50:16;17.60;91.00
16627;DHT22;8427;52.204;7.202;2023-07-31T08:52:46;17.50;91.50
16627;DHT22;8427;52.204;7.202;2023-07-31T08:55:14;17.60;91.20
16627;DHT22;8427;52.204;7.202;2023-07-31T08:57:42;17.30;91.20
16627;DHT22;8427;52.204;7.202;2023-07-31T09:00:11;17.40;91.30
16627;DHT22;8427;52.204;7.202;2023-07-31T09:02:44;17.50;91.50
16627;DHT22;8427;52.204;7.202;2023-07-31T09:05:14;17.40;91.30
16627;DHT22;8427;52.204;7.202;2023-07-31T09:07:45;17.40;91.50
16627;DHT22;8427;52.204;7.202;2023-07-31T09:10:14;17.40;91.20
16627;DHT22;8427;52.204;7.202;2023-07-31T09:12:42;17.60;91.40
16627;DHT22;8427;52.204;7.202;2023-07-31T09:15:11;17.40;91.40
16627;DHT22;8427;52.204;7.202;2023-07-31T09:17:58;17.40;91.50
16627;DHT22;8427;52.204;7.202;2023-07-31T09:20:27;17.40;91.70
16627;DHT22;8427;52.204;7.202;2023-07-31T09:22:57;17.40;91.90
16627;DHT22;8427;52.204;7.202;2023-07-31T09:25:32;17.50;92.00
16627;DHT22;8427;52.204;7.202;2023-07-31T09:28:02;17.50;91.60
16627;DHT22;8427;52.204;7.202;2023-07-31T09:30:31;17.50;91.70
16627;DHT22;8427;52.204;7.202;2023-07-31T09:33:03;17.50;91.80
16627;DHT22;8427;52.204;7.202;2023-07-31T09:35:34;17.70;91.60
16627;DHT22;8427;52.204;7.202;2023-07-31T09:38:07;17.60;91.50
16627;DHT22;8427;52.204;7.202;2023-07-31T09:40:36;17.70;91.70
16627;DHT22;8427;52.204;7.202;2023-07-31T09:43:06;17.70;91.60
16627;DHT22;8427;52.204;7.202;2023-07-31T09:45:35;17.80;91.40
16627;DHT22;8427;52.204;7.202;2023-07-31T09:48:08;17.90;91.40
16627;DHT22;8427;52.204;7.202;2023-07-31T09:50:36;18.00;91.20
16627;DHT22;8427;52.204;7.202;2023-07-31T09:53:06;18.00;91.20
16627;DHT22;8427;52.204;7.202;2023-07-31T09:55:34;18.10;90.70
16627;DHT22;8427;52.204;7.202;2023-07-31T09:58:03;18.00;90.90
16627;DHT22;8427;52.204;7.202;2023-07-31T10:00:31;18.00;91.20
16627;DHT22;8427;52.204;7.202;2023-07-31T10:02:59;18.10;91.30
16627;DHT22;8427;52.204;7.202;2023-07-31T10:05:30;18.20;90.80
16627;DHT22;8427;52.204;7.202;2023-07-31T10:07:58;18.10;90.60
16627;DHT22;8427;52.204;7.202;2023-07-31T10:10:28;18.20;91.20
16627;DHT22;8427;52.204;7.202;2023-07-31T10:12:56;18.40;91.20
16627;DHT22;8427;52.204;7.202;2023-07-31T10:15:24;18.30;89.70
16627;DHT22;8427;52.204;7.202;2023-07-31T10:17:53;18.20;90.20
16627;DHT22;8427;52.204;7.202;2023-07-31T10:20:23;18.10;90.30
16627;DHT22;8427;52.204;7.202;2023-07-31T10:22:52;18.00;90.80
16627;DHT22;8427;52.204;7.202;2023-07-31T10:25:21;18.00;90.90
16627;DHT22;8427;52.204;7.202;2023-07-31T10:27:50;18.00;91.10
16627;DHT22;8427;52.204;7.202;2023-07-31T10:30:20;18.00;90.60
16627;DHT22;8427;52.204;7.202;2023-07-31T10:32:50;17.80;90.70
16627;DHT22;8427;52.204;7.202;2023-07-31T10:35:19;17.90;90.80
16627;DHT22;8427;52.204;7.202;2023-07-31T10:37:48;18.00;90.90
16627;DHT22;8427;52.204;7.202;2023-07-31T10:40:16;17.90;90.80
16627;DHT22;8427;52.204;7.202;2023-07-31T10:42:47;17.90;90.70
16627;DHT22;8427;52.204;7.202;2023-07-31T10:45:25;17.90;90.70
16627;DHT22;8427;52.204;7.202;2023-07-31T10:48:00;17.90;90.40
16627;DHT22;8427;52.204;7.202;2023-07-31T10:50:29;18.00;90.60
16627;DHT22;8427;52.204;7.202;2023-07-31T10:52:59;17.90;90.30
16627;DHT22;8427;52.204;7.202;2023-07-31T10:55:29;18.00;90.30
16627;DHT22;8427;52.204;7.202;2023-07-31T10:57:58;17.90;90.30
16627;DHT22;8427;52.204;7.202;2023-07-31T11:00:28;18.00;90.60
16627;DHT22;8427;52.204;7.202;2023-07-31T11:02:56;18.00;90.80
16627;DHT22;8427;52.204;7.202;2023-07-31T11:05:41;18.10;90.40
16627;DHT22;8427;52.204;7.202;2023-07-31T11:08:10;18.10;90.40
16627;DHT22;8427;52.204;7.202;2023-07-31T11:10:37;18.20;90.10
16627;DHT22;8427;52.204;7.202;2023-07-31T11:13:05;18.30;89.90
16627;DHT22;8427;52.204;7.202;2023-07-31T11:15:35;18.30;89.90
16627;DHT22;8427;52.204;7.202;2023-07-31T11:18:03;18.20;89.60
16627;DHT22;8427;52.204;7.202;2023-07-31T11:20:32;18.20;90.10
16627;DHT22;8427;52.204;7.202;2023-07-31T11:23:00;18.20;90.10
16627;DHT22;8427;52.204;7.202;2023-07-31T11:25:29;18.20;90.00
16627;DHT22;8427;52.204;7.202;2023-07-31T11:28:01;18.30;90.00
16627;DHT22;8427;52.204;7.202;2023-07-31T11:30:29;18.40;90.10
16627;DHT22;8427;52.204;7.202;2023-07-31T11:32:59;18.40;89.40
16627;DHT22;8427;52.204;7.202;2023-07-31T11:35:26;18.50;89.50
16627;DHT22;8427;52.204;7.202;2023-07-31T11:37:54;18.40;89.30
16627;DHT22;8427;52.204;7.202;2023-07-31T11:40:22;18.30;89.40
16627;DHT22;8427;52.204;7.202;2023-07-31T11:42:58;18.30;89.40
16627;DHT22;8427;52.204;7.202;2023-07-31T11:45:26;18.30;89.00
16627;DHT22;8427;52.204;7.202;2023-07-31T11:47:55;18.20;89.30
16627;DHT22;8427;52.204;7.202;2023-07-31T11:50:24;18.20;88.70
16627;DHT22;8427;52.204;7.202;2023-07-31T11:52:55;18.20;89.00
16627;DHT22;8427;52.204;7.202;2023-07-31T11:55:24;18.20;89.00
16627;DHT22;8427;52.204;7.202;2023-07-31T11:57:52;18.30;89.00
16627;DHT22;8427;52.204;7.202;2023-07-31T12:00:21;18.50;89.30
16627;DHT22;8427;52.204;7.202;2023-07-31T12:02:49;18.70;88.50
16627;DHT22;8427;52.204;7.202;2023-07-31T12:05:17;19.00;88.20
16627;DHT22;8427;52.204;7.202;2023-07-31T12:07:47;19.20;87.50
16627;DHT22;8427;52.204;7.202;2023-07-31T12:10:28;19.00;86.30
16627;DHT22;8427;52.204;7.202;2023-07-31T12:12:56;19.20;86.60
16627;DHT22;8427;52.204;7.202;2023-07-31T12:15:29;19.10;86.00
16627;DHT22;8427;52.204;7.202;2023-07-31T12:17:58;19.00;85.90
16627;DHT22;8427;52.204;7.202;2023-07-31T12:20:26;19.00;86.20
16627;DHT22;8427;52.204;7.202;2023-07-31T12:22:57;18.80;86.40
16627;DHT22;8427;52.204;7.202;2023-07-31T12:25:29;18.80;86.70
16627;DHT22;8427;52.204;7.202;2023-07-31T12:27:56;18.80;86.40
16627;DHT22;8427;52.204;7.202;2023-07-31T12:30:28;19.00;86.90
16627;DHT22;8427;52.204;7.202;2023-07-31T12:32:55;19.00;86.40
16627;DHT22;8427;52.204;7.202;2023-07-31T12:35:23;19.00;87.20
16627;DHT22;8427;52.204;7.202;2023-07-31T12:37:53;18.90;87.30
16627;DHT22;8427;52.204;7.202;2023-07-31T12:40:22;18.90;87.40
16627;DHT22;8427;52.204;7.202;2023-07-31T12:43:00;18.90;88.10
16627;DHT22;8427;52.204;7.202;2023-07-31T12:45:28;18.70;88.20
16627;DHT22;8427;52.204;7.202;2023-07-31T12:47:56;18.80;88.60
16627;DHT22;8427;52.204;7.202;2023-07-31T12:50:24;18.80;88.50
16627;DHT22;8427;52.204;7.202;2023-07-31T12:52:53;18.70;88.90
16627;DHT22;8427;52.204;7.202;2023-07-31T12:55:24;18.70;88.70
16627;DHT22;8427;52.204;7.202;2023-07-31T12:57:53;18.70;89.00
16627;DHT22;8427;52.204;7.202;2023-07-31T13:00:22;18.70;88.80
16627;DHT22;8427;52.204;7.202;2023-07-31T13:02:50;18.60;88.90
16627;DHT22;8427;52.204;7.202;2023-07-31T13:05:18;18.70;89.00
16627;DHT22;8427;52.204;7.202;2023-07-31T13:07:47;18.70;88.70
16627;DHT22;8427;52.204;7.202;2023-07-31T13:10:19;18.70;88.80
16627;DHT22;8427;52.204;7.202;2023-07-31T13:12:48;18.80;88.60
16627;DHT22;8427;52.204;7.202;2023-07-31T13:15:16;18.80;88.40
16627;DHT22;8427;52.204;7.202;2023-07-31T13:17:45;18.80;88.10
16627;DHT22;8427;52.204;7.202;2023-07-31T13:20:13;19.00;88.00
16627;DHT22;8427;52.204;7.202;2023-07-31T13:22:41;19.10;87.80
16627;DHT22;8427;52.204;7.202;2023-07-31T13:25:12;19.20;87.60
16627;DHT22;8427;52.204;7.202;2023-07-31T13:27:40;19.20;86.60
16627;DHT22;8427;52.204;7.202;2023-07-31T13:30:10;19.20;86.40
16627;DHT22;8427;52.204;7.202;2023-07-31T13:32:38;19.40;86.00
16627;DHT22;8427;52.204;7.202;2023-07-31T13:35:06;19.50;85.90
16627;DHT22;8427;52.204;7.202;2023-07-31T13:37:34;19.70;85.10
16627;DHT22;8427;52.204;7.202;2023-07-31T13:40:03;19.70;84.40
16627;DHT22;8427;52.204;7.202;2023-07-31T13:42:31;19.60;84.60
16627;DHT22;8427;52.204;7.202;2023-07-31T13:44:59;19.70;84.30
16627;DHT22;8427;52.204;7.202;2023-07-31T13:47:34;19.60;84.30
16627;DHT22;8427;52.204;7.202;2023-07-31T13:50:04;19.70;84.70
16627;DHT22;8427;52.204;7.202;2023-07-31T13:52:32;19.80;84.50
16627;DHT22;8427;52.204;7.202;2023-07-31T13:55:00;19.50;84.40
16627;DHT22;8427;52.204;7.202;2023-07-31T13:57:28;19.50;84.50
16627;DHT22;8427;52.204;7.202;2023-07-31T13:59:56;19.40;84.70
16627;DHT22;8427;52.204;7.202;2023-07-31T14:02:24;19.40;84.60
16627;DHT22;8427;52.204;7.202;2023-07-31T14:04:53;19.30;84.70
16627;DHT22;8427;52.204;7.202;2023-07-31T14:07:22;19.30;84.80
16627;DHT22;8427;52.204;7.202;2023-07-31T14:09:49;19.20;85.40
16627;DHT22;8427;52.204;7.202;2023-07-31T14:12:17;19.10;86.30
16627;DHT22;8427;52.204;7.202;2023-07-31T14:15:06;19.00;86.60
16627;DHT22;8427;52.204;7.202;2023-07-31T14:17:34;18.90;87.20
16627;DHT22;8427;52.204;7.202;2023-07-31T14:20:05;18.90;87.30
16627;DHT22;8427;52.204;7.202;2023-07-31T14:22:34;19.00;87.20
16627;DHT22;8427;52.204;7.202;2023-07-31T14:25:02;19.10;87.70
16627;DHT22;8427;52.204;7.202;2023-07-31T14:27:30;19.10;87.90
16627;DHT22;8427;52.204;7.202;2023-07-31T14:29:58;19.10;87.70
16627;DHT22;8427;52.204;7.202;2023-07-31T14:32:26;19.20;87.30
16627;DHT22;8427;52.204;7.202;2023-07-31T14:34:54;19.30;87.20
16627;DHT22;8427;52.204;7.202;2023-07-31T14:37:26;19.50;86.70
16627;DHT22;8427;52.204;7.202;2023-07-31T14:39:54;19.60;86.00
16627;DHT22;8427;52.204;7.202;2023-07-31T14:42:23;19.70;84.80
16627;DHT22;8427;52.204;7.202;2023-07-31T14:44:50;19.70;84.90
16627;DHT22;8427;52.204;7.202;2023-07-31T14:47:18;19.70;84.30
16627;DHT22;8427;52.204;7.202;2023-07-31T14:49:46;19.80;84.30
16627;DHT22;8427;52.204;7.202;2023-07-31T14:52:14;19.90;83.90
16627;DHT22;8427;52.204;7.202;2023-07-31T14:54:44;19.90;84.00
16627;DHT22;8427;52.204;7.202;2023-07-31T14:57:12;20.00;84.00
16627;DHT22;8427;52.204;7.202;2023-07-31T14:59:40;19.80;84.20
16627;DHT22;8427;52.204;7.202;2023-07-31T15:02:09;19.60;84.50
16627;DHT22;8427;52.204;7.202;2023-07-31T15:04:37;19.60;84.90
16627;DHT22;8427;52.204;7.202;2023-07-31T15:07:05;19.50;84.80
16627;DHT22;8427;52.204;7.202;2023-07-31T15:09:33;19.50;85.40
16627;DHT22;8427;52.204;7.202;2023-07-31T15:12:03;19.40;85.50
16627;DHT22;8427;52.204;7.202;2023-07-31T15:14:31;19.30;86.40
16627;DHT22;8427;52.204;7.202;2023-07-31T15:17:01;19.20;86.90
16627;DHT22;8427;52.204;7.202;2023-07-31T15:19:29;19.00;87.40
16627;DHT22;8427;52.204;7.202;2023-07-31T15:22:01;19.00;88.20
16627;DHT22;8427;52.204;7.202;2023-07-31T15:24:29;18.90;88.40
16627;DHT22;8427;52.204;7.202;2023-07-31T15:26:57;18.80;88.50
16627;DHT22;8427;52.204;7.202;2023-07-31T15:29:27;18.80;89.10
16627;DHT22;8427;52.204;7.202;2023-07-31T15:31:56;18.70;89.30
16627;DHT22;8427;52.204;7.202;2023-07-31T15:34:24;18.70;89.40
16627;DHT22;8427;52.204;7.202;2023-07-31T15:36:52;18.60;89.60
16627;DHT22;8427;52.204;7.202;2023-07-31T15:39:20;18.60;90.00
16627;DHT22;8427;52.204;7.202;2023-07-31T15:41:48;18.50;89.70
16627;DHT22;8427;52.204;7.202;2023-07-31T15:44:16;18.60;89.80
16627;DHT22;8427;52.204;7.202;2023-07-31T15:46:45;18.70;89.60
16627;DHT22;8427;52.204;7.202;2023-07-31T15:49:13;18.70;89.60
16627;DHT22;8427;52.204;7.202;2023-07-31T15:51:41;18.70;89.80
16627;DHT22;8427;52.204;7.202;2023-07-31T15:54:09;18.70;89.40
16627;DHT22;8427;52.204;7.202;2023-07-31T15:56:37;18.80;89.40